sensor_id;sensor_type;location;lat;lon;timestamp;P1;durP1;ratioP1;P2;durP2;ratioP2
17201;SDS011;8717;53.588;10.176;2023-07-13T00:01:52;4.97;;;2.60;;
17201;SDS011;8717;53.588;10.176;2023-07-13T00:04:19;8.00;;;2.97;;
17201;SDS011;8717;53.588;10.176;2023-07-13T00:06:50;6.77;;;2.80;;
17201;SDS011;8717;53.588;10.176;2023-07-13T00:09:17;5.33;;;2.50;;
17201;SDS011;8717;53.588;10.176;2023-07-13T00:11:49;5.53;;;2.30;;
17201;SDS011;8717;53.588;10.176;2023-07-13T00:14:17;4.83;;;2.77;;
17201;SDS011;8717;53.588;10.176;2023-07-13T00:16:44;4.30;;;2.20;;
17201;SDS011;8717;53.588;10.176;2023-07-13T00:19:11;10.40;;;3.20;;
17201;SDS011;8717;53.588;10.176;2023-07-13T00:21:38;10.50;;;2.63;;
17201;SDS011;8717;53.588;10.176;2023-07-13T00:24:05;4.77;;;2.50;;
17201;SDS011;8717;53.588;10.176;2023-07-13T00:26:33;8.83;;;2.70;;
17201;SDS011;8717;53.588;10.176;2023-07-13T00:29:02;9.17;;;3.17;;
17201;SDS011;8717;53.588;10.176;2023-07-13T00:31:31;7.80;;;2.60;;
17201;SDS011;8717;53.588;10.176;2023-07-13T00:33:58;5.47;;;2.57;;
17201;SDS011;8717;53.588;10.176;2023-07-13T00:36:25;6.63;;;2.40;;
17201;SDS011;8717;53.588;10.176;2023-07-13T00:38:52;7.10;;;2.60;;
17201;SDS011;8717;53.588;10.176;2023-07-13T00:41:19;6.37;;;3.13;;
17201;SDS011;8717;53.588;10.176;2023-07-13T00:43:47;8.50;;;2.67;;
17201;SDS011;8717;53.588;10.176;2023-07-13T00:46:20;8.50;;;3.00;;
17201;SDS011;8717;53.588;10.176;2023-07-13T00:48:49;7.30;;;2.80;;
17201;SDS011;8717;53.588;10.176;2023-07-13T00:51:19;3.73;;;2.30;;
17201;SDS011;8717;53.588;10.176;2023-07-13T00:53:50;5.33;;;2.60;;
17201;SDS011;8717;53.588;10.176;2023-07-13T00:56:18;8.67;;;2.63;;
17201;SDS011;8717;53.588;10.176;2023-07-13T00:58:45;3.53;;;1.97;;
17201;SDS011;8717;53.588;10.176;2023-07-13T01:01:12;3.57;;;2.30;;
17201;SDS011;8717;53.588;10.176;2023-07-13T01:03:41;5.47;;;2.30;;
17201;SDS011;8717;53.588;10.176;2023-07-13T01:06:08;4.37;;;2.80;;
17201;SDS011;8717;53.588;10.176;2023-07-13T01:08:35;5.67;;;2.67;;
17201;SDS011;8717;53.588;10.176;2023-07-13T01:11:02;3.93;;;2.27;;
17201;SDS011;8717;53.588;10.176;2023-07-13T01:13:29;6.60;;;2.67;;
17201;SDS011;8717;53.588;10.176;2023-07-13T01:15:57;6.97;;;2.20;;
17201;SDS011;8717;53.588;10.176;2023-07-13T01:18:27;4.37;;;2.47;;
17201;SDS011;8717;53.588;10.176;2023-07-13T01:20:56;11.43;;;3.10;;
17201;SDS011;8717;53.588;10.176;2023-07-13T01:23:25;7.27;;;2.60;;
17201;SDS011;8717;53.588;10.176;2023-07-13T01:25:54;5.10;;;3.03;;
17201;SDS011;8717;53.588;10.176;2023-07-13T01:28:22;6.30;;;2.63;;
17201;SDS011;8717;53.588;10.176;2023-07-13T01:30:52;5.23;;;3.23;;
17201;SDS011;8717;53.588;10.176;2023-07-13T01:33:20;7.60;;;3.17;;
17201;SDS011;8717;53.588;10.176;2023-07-13T01:35:48;8.73;;;2.60;;
17201;SDS011;8717;53.588;10.176;2023-07-13T01:38:20;7.40;;;2.83;;
17201;SDS011;8717;53.588;10.176;2023-07-13T01:40:49;6.03;;;2.90;;
17201;SDS011;8717;53.588;10.176;2023-07-13T01:43:16;4.90;;;2.40;;
17201;SDS011;8717;53.588;10.176;2023-07-13T01:45:43;5.10;;;2.80;;
17201;SDS011;8717;53.588;10.176;2023-07-13T01:48:11;5.00;;;2.80;;
17201;SDS011;8717;53.588;10.176;2023-07-13T01:50:40;5.33;;;2.93;;
17201;SDS011;8717;53.588;10.176;2023-07-13T01:53:07;6.47;;;2.97;;
17201;SDS011;8717;53.588;10.176;2023-07-13T01:55:35;6.07;;;2.93;;
17201;SDS011;8717;53.588;10.176;2023-07-13T01:58:02;5.03;;;3.00;;
17201;SDS011;8717;53.588;10.176;2023-07-13T02:00:30;5.57;;;2.83;;
17201;SDS011;8717;53.588;10.176;2023-07-13T02:02:57;5.17;;;2.80;;
17201;SDS011;8717;53.588;10.176;2023-07-13T02:05:24;3.47;;;2.57;;
17201;SDS011;8717;53.588;10.176;2023-07-13T02:07:51;6.77;;;3.47;;
17201;SDS011;8717;53.588;10.176;2023-07-13T02:10:19;7.57;;;3.07;;
17201;SDS011;8717;53.588;10.176;2023-07-13T02:12:47;4.30;;;3.30;;
17201;SDS011;8717;53.588;10.176;2023-07-13T02:15:15;6.47;;;3.50;;
17201;SDS011;8717;53.588;10.176;2023-07-13T02:17:42;6.53;;;3.40;;
17201;SDS011;8717;53.588;10.176;2023-07-13T02:20:09;9.73;;;3.90;;
17201;SDS011;8717;53.588;10.176;2023-07-13T02:22:36;8.43;;;3.93;;
17201;SDS011;8717;53.588;10.176;2023-07-13T02:25:03;7.03;;;4.30;;
17201;SDS011;8717;53.588;10.176;2023-07-13T02:27:31;9.60;;;4.00;;
17201;SDS011;8717;53.588;10.176;2023-07-13T02:29:59;7.60;;;4.07;;
17201;SDS011;8717;53.588;10.176;2023-07-13T02:32:25;6.63;;;4.87;;
17201;SDS011;8717;53.588;10.176;2023-07-13T02:34:52;4.77;;;3.73;;
17201;SDS011;8717;53.588;10.176;2023-07-13T02:37:19;8.67;;;4.73;;
17201;SDS011;8717;53.588;10.176;2023-07-13T02:39:46;5.83;;;4.30;;
17201;SDS011;8717;53.588;10.176;2023-07-13T02:42:13;6.13;;;4.53;;
17201;SDS011;8717;53.588;10.176;2023-07-13T02:44:41;8.43;;;5.30;;
17201;SDS011;8717;53.588;10.176;2023-07-13T02:47:10;8.33;;;4.70;;
17201;SDS011;8717;53.588;10.176;2023-07-13T02:49:38;6.73;;;5.13;;
17201;SDS011;8717;53.588;10.176;2023-07-13T02:52:05;7.27;;;5.10;;
17201;SDS011;8717;53.588;10.176;2023-07-13T02:54:32;8.60;;;5.10;;
17201;SDS011;8717;53.588;10.176;2023-07-13T02:56:59;10.23;;;5.03;;
17201;SDS011;8717;53.588;10.176;2023-07-13T02:59:26;6.33;;;5.30;;
17201;SDS011;8717;53.588;10.176;2023-07-13T03:01:53;8.23;;;5.00;;
17201;SDS011;8717;53.588;10.176;2023-07-13T03:04:21;9.23;;;5.67;;
17201;SDS011;8717;53.588;10.176;2023-07-13T03:06:48;7.87;;;5.20;;
17201;SDS011;8717;53.588;10.176;2023-07-13T03:09:15;6.17;;;5.57;;
17201;SDS011;8717;53.588;10.176;2023-07-13T03:11:47;6.40;;;5.50;;
17201;SDS011;8717;53.588;10.176;2023-07-13T03:14:22;8.67;;;5.53;;
17201;SDS011;8717;53.588;10.176;2023-07-13T03:16:50;7.47;;;5.60;;
17201;SDS011;8717;53.588;10.176;2023-07-13T03:19:17;6.83;;;4.70;;
17201;SDS011;8717;53.588;10.176;2023-07-13T03:21:50;7.17;;;5.23;;
17201;SDS011;8717;53.588;10.176;2023-07-13T03:24:16;6.70;;;5.30;;
17201;SDS011;8717;53.588;10.176;2023-07-13T03:26:43;7.07;;;5.30;;
17201;SDS011;8717;53.588;10.176;2023-07-13T03:29:10;7.17;;;5.30;;
17201;SDS011;8717;53.588;10.176;2023-07-13T03:31:37;5.97;;;5.23;;
17201;SDS011;8717;53.588;10.176;2023-07-13T03:34:04;8.90;;;5.10;;
17201;SDS011;8717;53.588;10.176;2023-07-13T03:36:31;8.13;;;5.80;;
17201;SDS011;8717;53.588;10.176;2023-07-13T03:39:04;6.67;;;5.23;;
17201;SDS011;8717;53.588;10.176;2023-07-13T03:41:46;8.27;;;5.10;;
17201;SDS011;8717;53.588;10.176;2023-07-13T03:44:13;8.03;;;5.27;;
17201;SDS011;8717;53.588;10.176;2023-07-13T03:46:41;8.90;;;5.70;;
17201;SDS011;8717;53.588;10.176;2023-07-13T03:49:08;7.73;;;4.60;;
17201;SDS011;8717;53.588;10.176;2023-07-13T03:51:35;7.00;;;5.73;;
17201;SDS011;8717;53.588;10.176;2023-07-13T03:54:05;7.57;;;5.03;;
17201;SDS011;8717;53.588;10.176;2023-07-13T03:56:31;8.03;;;5.50;;
17201;SDS011;8717;53.588;10.176;2023-07-13T03:59:00;6.20;;;5.30;;
17201;SDS011;8717;53.588;10.176;2023-07-13T04:01:28;6.47;;;4.90;;
17201;SDS011;8717;53.588;10.176;2023-07-13T04:03:55;7.37;;;5.40;;
17201;SDS011;8717;53.588;10.176;2023-07-13T04:06:25;7.03;;;4.93;;
17201;SDS011;8717;53.588;10.176;2023-07-13T04:08:54;9.53;;;5.40;;
17201;SDS011;8717;53.588;10.176;2023-07-13T04:11:25;6.80;;;5.47;;
17201;SDS011;8717;53.588;10.176;2023-07-13T04:13:53;7.43;;;5.00;;
17201;SDS011;8717;53.588;10.176;2023-07-13T04:16:21;9.37;;;5.20;;
17201;SDS011;8717;53.588;10.176;2023-07-13T04:18:48;6.70;;;4.73;;
17201;SDS011;8717;53.588;10.176;2023-07-13T04:21:15;7.60;;;4.60;;
17201;SDS011;8717;53.588;10.176;2023-07-13T04:23:42;8.63;;;5.03;;
17201;SDS011;8717;53.588;10.176;2023-07-13T04:26:09;8.50;;;4.97;;
17201;SDS011;8717;53.588;10.176;2023-07-13T04:28:38;6.97;;;4.93;;
17201;SDS011;8717;53.588;10.176;2023-07-13T04:31:05;8.60;;;5.63;;
17201;SDS011;8717;53.588;10.176;2023-07-13T04:33:32;9.57;;;5.70;;
17201;SDS011;8717;53.588;10.176;2023-07-13T04:35:59;8.93;;;5.30;;
17201;SDS011;8717;53.588;10.176;2023-07-13T04:38:28;10.13;;;5.67;;
17201;SDS011;8717;53.588;10.176;2023-07-13T04:40:56;6.60;;;4.70;;
17201;SDS011;8717;53.588;10.176;2023-07-13T04:43:25;7.83;;;5.27;;
17201;SDS011;8717;53.588;10.176;2023-07-13T04:45:54;9.47;;;5.57;;
17201;SDS011;8717;53.588;10.176;2023-07-13T04:48:21;10.33;;;5.17;;
17201;SDS011;8717;53.588;10.176;2023-07-13T04:50:53;5.20;;;4.70;;
17201;SDS011;8717;53.588;10.176;2023-07-13T04:53:21;8.40;;;5.17;;
17201;SDS011;8717;53.588;10.176;2023-07-13T04:55:48;8.27;;;4.80;;
17201;SDS011;8717;53.588;10.176;2023-07-13T04:58:15;6.90;;;5.47;;
17201;SDS011;8717;53.588;10.176;2023-07-13T05:00:43;9.23;;;5.50;;
17201;SDS011;8717;53.588;10.176;2023-07-13T05:03:11;5.07;;;4.30;;
17201;SDS011;8717;53.588;10.176;2023-07-13T05:05:39;6.73;;;5.50;;
17201;SDS011;8717;53.588;10.176;2023-07-13T05:08:06;5.83;;;4.70;;
17201;SDS011;8717;53.588;10.176;2023-07-13T05:10:33;9.17;;;5.60;;
17201;SDS011;8717;53.588;10.176;2023-07-13T05:13:00;9.27;;;5.47;;
17201;SDS011;8717;53.588;10.176;2023-07-13T05:15:27;9.47;;;5.43;;
17201;SDS011;8717;53.588;10.176;2023-07-13T05:17:54;11.27;;;5.10;;
17201;SDS011;8717;53.588;10.176;2023-07-13T05:20:22;7.37;;;4.50;;
17201;SDS011;8717;53.588;10.176;2023-07-13T05:22:49;8.03;;;4.70;;
17201;SDS011;8717;53.588;10.176;2023-07-13T05:25:16;7.57;;;4.67;;
17201;SDS011;8717;53.588;10.176;2023-07-13T05:27:43;5.60;;;4.50;;
17201;SDS011;8717;53.588;10.176;2023-07-13T05:30:12;9.33;;;5.20;;
17201;SDS011;8717;53.588;10.176;2023-07-13T05:32:39;7.63;;;4.90;;
17201;SDS011;8717;53.588;10.176;2023-07-13T05:35:06;10.50;;;4.53;;
17201;SDS011;8717;53.588;10.176;2023-07-13T05:37:37;8.60;;;4.50;;
17201;SDS011;8717;53.588;10.176;2023-07-13T05:40:04;10.43;;;5.03;;
17201;SDS011;8717;53.588;10.176;2023-07-13T05:42:32;11.80;;;4.80;;
17201;SDS011;8717;53.588;10.176;2023-07-13T05:44:59;13.80;;;4.50;;
17201;SDS011;8717;53.588;10.176;2023-07-13T05:47:25;8.60;;;4.43;;
17201;SDS011;8717;53.588;10.176;2023-07-13T05:49:52;10.23;;;4.53;;
17201;SDS011;8717;53.588;10.176;2023-07-13T05:52:19;14.33;;;4.83;;
17201;SDS011;8717;53.588;10.176;2023-07-13T05:54:47;8.50;;;4.40;;
17201;SDS011;8717;53.588;10.176;2023-07-13T05:57:14;10.47;;;4.30;;
17201;SDS011;8717;53.588;10.176;2023-07-13T05:59:41;10.23;;;4.10;;
17201;SDS011;8717;53.588;10.176;2023-07-13T06:02:08;10.10;;;3.37;;
17201;SDS011;8717;53.588;10.176;2023-07-13T06:04:35;9.53;;;3.93;;
17201;SDS011;8717;53.588;10.176;2023-07-13T06:07:02;8.87;;;3.70;;
17201;SDS011;8717;53.588;10.176;2023-07-13T06:09:29;10.60;;;3.80;;
17201;SDS011;8717;53.588;10.176;2023-07-13T06:11:57;9.80;;;3.87;;
17201;SDS011;8717;53.588;10.176;2023-07-13T06:14:23;11.70;;;4.17;;
17201;SDS011;8717;53.588;10.176;2023-07-13T06:16:51;13.53;;;4.00;;
17201;SDS011;8717;53.588;10.176;2023-07-13T06:19:18;8.10;;;4.10;;
17201;SDS011;8717;53.588;10.176;2023-07-13T06:21:44;10.50;;;3.87;;
17201;SDS011;8717;53.588;10.176;2023-07-13T06:24:11;11.27;;;4.20;;
17201;SDS011;8717;53.588;10.176;2023-07-13T06:26:38;8.83;;;4.23;;
17201;SDS011;8717;53.588;10.176;2023-07-13T06:29:06;11.80;;;3.80;;
17201;SDS011;8717;53.588;10.176;2023-07-13T06:31:32;11.43;;;3.70;;
17201;SDS011;8717;53.588;10.176;2023-07-13T06:33:59;9.60;;;4.10;;
17201;SDS011;8717;53.588;10.176;2023-07-13T06:36:26;9.17;;;3.10;;
17201;SDS011;8717;53.588;10.176;2023-07-13T06:38:53;12.57;;;3.53;;
17201;SDS011;8717;53.588;10.176;2023-07-13T06:41:20;8.13;;;2.80;;
17201;SDS011;8717;53.588;10.176;2023-07-13T06:43:47;9.30;;;3.33;;
17201;SDS011;8717;53.588;10.176;2023-07-13T06:46:15;10.10;;;3.37;;
17201;SDS011;8717;53.588;10.176;2023-07-13T06:48:41;12.03;;;3.23;;
17201;SDS011;8717;53.588;10.176;2023-07-13T06:51:08;10.53;;;2.93;;
17201;SDS011;8717;53.588;10.176;2023-07-13T06:53:35;8.13;;;3.10;;
17201;SDS011;8717;53.588;10.176;2023-07-13T06:56:02;5.73;;;3.10;;
17201;SDS011;8717;53.588;10.176;2023-07-13T06:58:29;8.87;;;3.27;;
17201;SDS011;8717;53.588;10.176;2023-07-13T07:00:55;7.20;;;2.97;;
17201;SDS011;8717;53.588;10.176;2023-07-13T07:03:23;7.27;;;3.70;;
17201;SDS011;8717;53.588;10.176;2023-07-13T07:05:50;6.70;;;2.73;;
17201;SDS011;8717;53.588;10.176;2023-07-13T07:08:17;7.60;;;3.40;;
17201;SDS011;8717;53.588;10.176;2023-07-13T07:10:44;8.23;;;2.90;;
17201;SDS011;8717;53.588;10.176;2023-07-13T07:13:11;6.93;;;2.50;;
17201;SDS011;8717;53.588;10.176;2023-07-13T07:15:38;10.45;;;3.22;;
17201;SDS011;8717;53.588;10.176;2023-07-13T07:18:04;8.40;;;2.88;;
17201;SDS011;8717;53.588;10.176;2023-07-13T07:20:33;8.23;;;2.80;;
17201;SDS011;8717;53.588;10.176;2023-07-13T07:23:00;9.07;;;3.10;;
17201;SDS011;8717;53.588;10.176;2023-07-13T07:25:26;8.57;;;2.90;;
17201;SDS011;8717;53.588;10.176;2023-07-13T07:27:56;10.65;;;2.88;;
17201;SDS011;8717;53.588;10.176;2023-07-13T07:30:23;9.02;;;2.88;;
17201;SDS011;8717;53.588;10.176;2023-07-13T07:32:50;5.35;;;2.65;;
17201;SDS011;8717;53.588;10.176;2023-07-13T07:35:17;7.95;;;2.70;;
17201;SDS011;8717;53.588;10.176;2023-07-13T07:37:45;5.82;;;2.45;;
17201;SDS011;8717;53.588;10.176;2023-07-13T07:40:11;7.45;;;2.90;;
17201;SDS011;8717;53.588;10.176;2023-07-13T07:42:38;6.00;;;2.50;;
17201;SDS011;8717;53.588;10.176;2023-07-13T07:45:05;8.13;;;2.60;;
17201;SDS011;8717;53.588;10.176;2023-07-13T07:47:32;6.18;;;2.25;;
17201;SDS011;8717;53.588;10.176;2023-07-13T07:49:59;9.00;;;2.63;;
17201;SDS011;8717;53.588;10.176;2023-07-13T07:52:26;7.57;;;2.55;;
17201;SDS011;8717;53.588;10.176;2023-07-13T07:54:53;8.07;;;2.28;;
17201;SDS011;8717;53.588;10.176;2023-07-13T07:57:20;5.32;;;2.15;;
17201;SDS011;8717;53.588;10.176;2023-07-13T07:59:47;7.15;;;2.33;;
17201;SDS011;8717;53.588;10.176;2023-07-13T08:02:14;6.63;;;2.00;;
17201;SDS011;8717;53.588;10.176;2023-07-13T08:04:41;6.38;;;2.03;;
17201;SDS011;8717;53.588;10.176;2023-07-13T08:07:08;6.68;;;2.08;;
17201;SDS011;8717;53.588;10.176;2023-07-13T08:09:35;5.68;;;2.22;;
17201;SDS011;8717;53.588;10.176;2023-07-13T08:12:03;10.45;;;2.78;;
17201;SDS011;8717;53.588;10.176;2023-07-13T08:14:31;5.47;;;2.05;;
17201;SDS011;8717;53.588;10.176;2023-07-13T08:16:58;5.95;;;1.90;;
17201;SDS011;8717;53.588;10.176;2023-07-13T08:19:25;6.00;;;2.40;;
17201;SDS011;8717;53.588;10.176;2023-07-13T08:21:52;8.43;;;2.50;;
17201;SDS011;8717;53.588;10.176;2023-07-13T08:24:18;6.15;;;2.35;;
17201;SDS011;8717;53.588;10.176;2023-07-13T08:26:48;6.30;;;2.35;;
17201;SDS011;8717;53.588;10.176;2023-07-13T08:29:16;6.30;;;2.35;;
17201;SDS011;8717;53.588;10.176;2023-07-13T08:31:43;6.78;;;2.30;;
17201;SDS011;8717;53.588;10.176;2023-07-13T08:34:10;6.43;;;2.40;;
17201;SDS011;8717;53.588;10.176;2023-07-13T08:36:36;9.30;;;2.72;;
17201;SDS011;8717;53.588;10.176;2023-07-13T08:39:03;7.53;;;2.30;;
17201;SDS011;8717;53.588;10.176;2023-07-13T08:41:29;7.30;;;2.35;;
17201;SDS011;8717;53.588;10.176;2023-07-13T08:43:57;7.05;;;2.05;;
17201;SDS011;8717;53.588;10.176;2023-07-13T08:46:28;6.30;;;1.75;;
17201;SDS011;8717;53.588;10.176;2023-07-13T08:49:01;5.57;;;2.10;;
17201;SDS011;8717;53.588;10.176;2023-07-13T08:51:33;5.07;;;1.88;;
17201;SDS011;8717;53.588;10.176;2023-07-13T08:54:04;5.82;;;2.13;;
17201;SDS011;8717;53.588;10.176;2023-07-13T08:56:43;8.32;;;2.22;;
17201;SDS011;8717;53.588;10.176;2023-07-13T08:59:13;6.20;;;2.10;;
17201;SDS011;8717;53.588;10.176;2023-07-13T09:01:51;4.93;;;1.90;;
17201;SDS011;8717;53.588;10.176;2023-07-13T09:04:28;4.63;;;2.00;;
17201;SDS011;8717;53.588;10.176;2023-07-13T09:07:01;4.32;;;1.83;;
17201;SDS011;8717;53.588;10.176;2023-07-13T09:09:36;9.25;;;2.30;;
17201;SDS011;8717;53.588;10.176;2023-07-13T09:12:12;5.20;;;1.90;;
17201;SDS011;8717;53.588;10.176;2023-07-13T09:14:44;6.72;;;2.13;;
17201;SDS011;8717;53.588;10.176;2023-07-13T09:17:17;5.85;;;1.85;;
17201;SDS011;8717;53.588;10.176;2023-07-13T09:19:48;5.05;;;2.08;;
17201;SDS011;8717;53.588;10.176;2023-07-13T09:22:27;7.68;;;2.50;;
17201;SDS011;8717;53.588;10.176;2023-07-13T09:24:58;4.85;;;2.22;;
17201;SDS011;8717;53.588;10.176;2023-07-13T09:27:33;5.85;;;2.00;;
17201;SDS011;8717;53.588;10.176;2023-07-13T09:30:11;3.90;;;1.70;;
17201;SDS011;8717;53.588;10.176;2023-07-13T09:32:52;3.03;;;1.35;;
17201;SDS011;8717;53.588;10.176;2023-07-13T09:35:20;5.07;;;1.90;;
17201;SDS011;8717;53.588;10.176;2023-07-13T09:37:51;7.75;;;1.80;;
17201;SDS011;8717;53.588;10.176;2023-07-13T09:40:24;3.58;;;1.77;;
17201;SDS011;8717;53.588;10.176;2023-07-13T09:42:59;6.32;;;1.70;;
17201;SDS011;8717;53.588;10.176;2023-07-13T09:45:27;3.30;;;1.90;;
17201;SDS011;8717;53.588;10.176;2023-07-13T09:48:03;4.07;;;1.70;;
17201;SDS011;8717;53.588;10.176;2023-07-13T09:50:31;4.70;;;1.65;;
17201;SDS011;8717;53.588;10.176;2023-07-13T09:52:57;4.35;;;1.98;;
17201;SDS011;8717;53.588;10.176;2023-07-13T09:55:28;4.68;;;1.90;;
17201;SDS011;8717;53.588;10.176;2023-07-13T09:57:57;4.25;;;1.60;;
17201;SDS011;8717;53.588;10.176;2023-07-13T10:00:30;4.38;;;1.67;;
17201;SDS011;8717;53.588;10.176;2023-07-13T10:03:03;3.45;;;1.70;;
17201;SDS011;8717;53.588;10.176;2023-07-13T10:05:37;8.35;;;1.80;;
17201;SDS011;8717;53.588;10.176;2023-07-13T10:08:05;5.90;;;1.83;;
17201;SDS011;8717;53.588;10.176;2023-07-13T10:10:32;4.22;;;1.80;;
17201;SDS011;8717;53.588;10.176;2023-07-13T10:13:01;3.15;;;1.95;;
17201;SDS011;8717;53.588;10.176;2023-07-13T10:15:29;3.85;;;1.83;;
17201;SDS011;8717;53.588;10.176;2023-07-13T10:17:56;5.20;;;1.75;;
17201;SDS011;8717;53.588;10.176;2023-07-13T10:20:25;4.85;;;2.20;;
17201;SDS011;8717;53.588;10.176;2023-07-13T10:22:54;5.63;;;2.10;;
17201;SDS011;8717;53.588;10.176;2023-07-13T10:25:26;6.32;;;2.05;;
17201;SDS011;8717;53.588;10.176;2023-07-13T10:27:58;4.35;;;1.67;;
17201;SDS011;8717;53.588;10.176;2023-07-13T10:30:28;3.40;;;1.70;;
17201;SDS011;8717;53.588;10.176;2023-07-13T10:33:00;7.82;;;2.22;;
17201;SDS011;8717;53.588;10.176;2023-07-13T10:35:30;3.88;;;1.67;;
17201;SDS011;8717;53.588;10.176;2023-07-13T10:37:59;5.57;;;1.67;;
17201;SDS011;8717;53.588;10.176;2023-07-13T10:40:32;3.88;;;1.73;;
17201;SDS011;8717;53.588;10.176;2023-07-13T10:43:04;3.92;;;1.77;;
17201;SDS011;8717;53.588;10.176;2023-07-13T10:45:39;3.25;;;1.70;;
17201;SDS011;8717;53.588;10.176;2023-07-13T10:48:08;6.35;;;2.05;;
17201;SDS011;8717;53.588;10.176;2023-07-13T10:50:40;4.25;;;1.80;;
17201;SDS011;8717;53.588;10.176;2023-07-13T10:53:17;5.28;;;2.05;;
17201;SDS011;8717;53.588;10.176;2023-07-13T10:55:56;3.10;;;1.70;;
17201;SDS011;8717;53.588;10.176;2023-07-13T10:58:28;4.10;;;1.75;;
17201;SDS011;8717;53.588;10.176;2023-07-13T11:01:01;3.35;;;1.65;;
17201;SDS011;8717;53.588;10.176;2023-07-13T11:03:33;4.00;;;1.55;;
17201;SDS011;8717;53.588;10.176;2023-07-13T11:06:07;4.78;;;1.83;;
17201;SDS011;8717;53.588;10.176;2023-07-13T11:08:37;3.55;;;1.80;;
17201;SDS011;8717;53.588;10.176;2023-07-13T11:11:33;4.82;;;1.65;;
17201;SDS011;8717;53.588;10.176;2023-07-13T11:14:04;7.05;;;1.88;;
17201;SDS011;8717;53.588;10.176;2023-07-13T11:16:51;3.85;;;1.77;;
17201;SDS011;8717;53.588;10.176;2023-07-13T11:19:29;4.13;;;1.60;;
17201;SDS011;8717;53.588;10.176;2023-07-13T11:25:21;2.95;;;1.45;;
17201;SDS011;8717;53.588;10.176;2023-07-13T11:28:03;3.28;;;1.23;;
17201;SDS011;8717;53.588;10.176;2023-07-13T11:30:43;3.38;;;1.58;;
17201;SDS011;8717;53.588;10.176;2023-07-13T11:33:16;3.17;;;1.60;;
17201;SDS011;8717;53.588;10.176;2023-07-13T11:35:48;3.83;;;1.60;;
17201;SDS011;8717;53.588;10.176;2023-07-13T11:38:21;2.80;;;1.50;;
17201;SDS011;8717;53.588;10.176;2023-07-13T11:40:50;2.72;;;1.50;;
17201;SDS011;8717;53.588;10.176;2023-07-13T11:43:20;4.22;;;1.80;;
17201;SDS011;8717;53.588;10.176;2023-07-13T11:45:48;4.47;;;1.70;;
17201;SDS011;8717;53.588;10.176;2023-07-13T11:48:22;2.78;;;1.58;;
17201;SDS011;8717;53.588;10.176;2023-07-13T11:50:54;3.65;;;1.58;;
17201;SDS011;8717;53.588;10.176;2023-07-13T11:53:27;3.25;;;1.65;;
17201;SDS011;8717;53.588;10.176;2023-07-13T11:55:57;3.03;;;1.55;;
17201;SDS011;8717;53.588;10.176;2023-07-13T11:58:24;3.58;;;1.60;;
17201;SDS011;8717;53.588;10.176;2023-07-13T12:00:53;5.22;;;1.40;;
17201;SDS011;8717;53.588;10.176;2023-07-13T12:03:23;3.58;;;1.80;;
17201;SDS011;8717;53.588;10.176;2023-07-13T12:05:55;3.63;;;1.55;;
17201;SDS011;8717;53.588;10.176;2023-07-13T12:08:27;3.15;;;1.30;;
17201;SDS011;8717;53.588;10.176;2023-07-13T12:10:59;3.35;;;1.67;;
17201;SDS011;8717;53.588;10.176;2023-07-13T12:13:34;4.30;;;1.60;;
17201;SDS011;8717;53.588;10.176;2023-07-13T12:16:02;3.42;;;1.70;;
17201;SDS011;8717;53.588;10.176;2023-07-13T12:18:37;4.53;;;1.40;;
17201;SDS011;8717;53.588;10.176;2023-07-13T12:21:05;3.28;;;1.50;;
17201;SDS011;8717;53.588;10.176;2023-07-13T12:23:39;3.55;;;1.65;;
17201;SDS011;8717;53.588;10.176;2023-07-13T12:26:10;2.45;;;1.15;;
17201;SDS011;8717;53.588;10.176;2023-07-13T12:28:38;2.80;;;1.40;;
17201;SDS011;8717;53.588;10.176;2023-07-13T12:31:19;5.80;;;1.58;;
17201;SDS011;8717;53.588;10.176;2023-07-13T12:33:55;7.22;;;2.17;;
17201;SDS011;8717;53.588;10.176;2023-07-13T12:36:24;35.17;;;5.80;;
17201;SDS011;8717;53.588;10.176;2023-07-13T12:38:53;7.85;;;2.38;;
17201;SDS011;8717;53.588;10.176;2023-07-13T12:41:20;16.88;;;2.95;;
17201;SDS011;8717;53.588;10.176;2023-07-13T12:43:48;10.05;;;2.72;;
17201;SDS011;8717;53.588;10.176;2023-07-13T12:46:16;6.28;;;2.08;;
17201;SDS011;8717;53.588;10.176;2023-07-13T12:48:48;9.75;;;2.65;;
17201;SDS011;8717;53.588;10.176;2023-07-13T12:51:20;6.13;;;2.37;;
17201;SDS011;8717;53.588;10.176;2023-07-13T12:53:50;7.47;;;2.60;;
17201;SDS011;8717;53.588;10.176;2023-07-13T12:56:24;7.03;;;2.50;;
17201;SDS011;8717;53.588;10.176;2023-07-13T12:58:56;35.70;;;5.10;;
17201;SDS011;8717;53.588;10.176;2023-07-13T13:01:25;5.03;;;2.57;;
17201;SDS011;8717;53.588;10.176;2023-07-13T13:03:54;4.37;;;2.50;;
17201;SDS011;8717;53.588;10.176;2023-07-13T13:06:22;7.00;;;2.63;;
17201;SDS011;8717;53.588;10.176;2023-07-13T13:08:52;8.03;;;2.83;;
17201;SDS011;8717;53.588;10.176;2023-07-13T13:11:22;30.20;;;4.90;;
17201;SDS011;8717;53.588;10.176;2023-07-13T13:13:51;12.80;;;3.70;;
17201;SDS011;8717;53.588;10.176;2023-07-13T13:16:20;7.10;;;3.00;;
17201;SDS011;8717;53.588;10.176;2023-07-13T13:18:48;6.17;;;3.03;;
17201;SDS011;8717;53.588;10.176;2023-07-13T13:21:16;6.43;;;3.10;;
17201;SDS011;8717;53.588;10.176;2023-07-13T13:23:43;4.60;;;2.58;;
17201;SDS011;8717;53.588;10.176;2023-07-13T13:26:11;6.50;;;3.28;;
17201;SDS011;8717;53.588;10.176;2023-07-13T13:28:41;5.35;;;3.40;;
17201;SDS011;8717;53.588;10.176;2023-07-13T13:31:09;7.00;;;2.90;;
17201;SDS011;8717;53.588;10.176;2023-07-13T13:33:37;7.32;;;3.55;;
17201;SDS011;8717;53.588;10.176;2023-07-13T13:36:08;4.47;;;2.70;;
17201;SDS011;8717;53.588;10.176;2023-07-13T13:38:40;4.63;;;2.70;;
17201;SDS011;8717;53.588;10.176;2023-07-13T13:41:07;4.25;;;2.50;;
17201;SDS011;8717;53.588;10.176;2023-07-13T13:43:36;2.70;;;1.98;;
17201;SDS011;8717;53.588;10.176;2023-07-13T13:46:08;4.63;;;2.17;;
17201;SDS011;8717;53.588;10.176;2023-07-13T13:48:40;3.63;;;1.83;;
17201;SDS011;8717;53.588;10.176;2023-07-13T13:51:12;2.47;;;1.90;;
17201;SDS011;8717;53.588;10.176;2023-07-13T13:53:41;3.15;;;2.40;;
17201;SDS011;8717;53.588;10.176;2023-07-13T13:56:08;3.85;;;2.10;;
17201;SDS011;8717;53.588;10.176;2023-07-13T13:58:35;3.92;;;2.20;;
17201;SDS011;8717;53.588;10.176;2023-07-13T14:01:01;2.33;;;1.75;;
17201;SDS011;8717;53.588;10.176;2023-07-13T14:03:33;4.45;;;1.88;;
17201;SDS011;8717;53.588;10.176;2023-07-13T14:06:00;3.55;;;2.10;;
17201;SDS011;8717;53.588;10.176;2023-07-13T14:08:27;3.65;;;1.85;;
17201;SDS011;8717;53.588;10.176;2023-07-13T14:10:54;3.35;;;1.90;;
17201;SDS011;8717;53.588;10.176;2023-07-13T14:13:24;2.78;;;1.67;;
17201;SDS011;8717;53.588;10.176;2023-07-13T14:15:54;4.90;;;2.15;;
17201;SDS011;8717;53.588;10.176;2023-07-13T14:18:22;5.35;;;2.03;;
17201;SDS011;8717;53.588;10.176;2023-07-13T14:20:49;2.80;;;1.90;;
17201;SDS011;8717;53.588;10.176;2023-07-13T14:23:17;3.42;;;1.70;;
17201;SDS011;8717;53.588;10.176;2023-07-13T14:25:44;3.78;;;2.00;;
17201;SDS011;8717;53.588;10.176;2023-07-13T14:28:17;3.72;;;1.42;;
17201;SDS011;8717;53.588;10.176;2023-07-13T14:30:47;2.22;;;1.65;;
17201;SDS011;8717;53.588;10.176;2023-07-13T14:33:14;3.08;;;1.90;;
17201;SDS011;8717;53.588;10.176;2023-07-13T14:35:42;1.80;;;1.50;;
17201;SDS011;8717;53.588;10.176;2023-07-13T14:38:10;2.60;;;1.70;;
17201;SDS011;8717;53.588;10.176;2023-07-13T14:40:39;3.92;;;1.63;;
17201;SDS011;8717;53.588;10.176;2023-07-13T14:43:08;2.83;;;1.58;;
17201;SDS011;8717;53.588;10.176;2023-07-13T14:45:38;4.28;;;1.60;;
17201;SDS011;8717;53.588;10.176;2023-07-13T14:48:13;2.35;;;1.38;;
17201;SDS011;8717;53.588;10.176;2023-07-13T14:50:43;2.85;;;1.88;;
17201;SDS011;8717;53.588;10.176;2023-07-13T14:53:11;2.45;;;1.60;;
17201;SDS011;8717;53.588;10.176;2023-07-13T14:55:38;2.28;;;1.58;;
17201;SDS011;8717;53.588;10.176;2023-07-13T14:58:07;2.55;;;1.58;;
17201;SDS011;8717;53.588;10.176;2023-07-13T15:00:35;3.75;;;1.83;;